Terminal Aerodrome Forecast
Issued by NWS Cleveland, OH

Home | Current Version | Previous Version | Text Only | Print | Product List | Glossary On
Versions: 1 2 3 4 5 6 7 8 9 10 11 12 13 14 15 16 17 18 19
000
FTUS41 KCLE 290528
TAFYNG
TAF
KYNG 290528Z 2906/3006 20005KT P6SM OVC100
      TEMPO 2906/2907 6SM -TSRA OVC035CB
     FM290700 24006KT P6SM OVC060
     FM291200 25008KT P6SM SCT150
     FM292200 25008KT P6SM VCTS SCT035CB BKN120
     FM300200 22006KT P6SM SCT120=

USA.gov is the U.S. government's official web portal to all federal, state and local government web resources and services.